Time;durP1;ratioP1;P1;durP2;ratioP2;P2;SDS_P1;SDS_P2;PMS_P1;PMS_P2;Temp;Humidity;BMP_temperature;BMP_pressure;BME280_temperature;BME280_humidity;BME280_pressure;Samples;Min_cycle;Max_cycle;Signal;HPM_P1;HPM_P2
2022/12/20 00:01:16;;;;;;;27.30;15.52;;;;;;;2.59;63.29;103037.41;5061185;28;20527;-75
2022/12/20 00:03:43;;;;;;;32.05;15.23;;;;;;;2.85;62.93;103063.69;5054991;28;20021;-77
2022/12/20 00:06:09;;;;;;;26.48;15.02;;;;;;;2.59;62.53;103024.13;5052378;28;20517;-75
2022/12/20 00:08:36;;;;;;;32.55;15.18;;;;;;;2.80;62.97;103085.00;5054080;28;20033;-77
2022/12/20 00:11:04;;;;;;;33.17;17.10;;;;;;;2.77;62.94;103073.53;5054729;28;20029;-76
2022/12/20 00:13:30;;;;;;;31.92;16.13;;;;;;;2.79;63.28;103071.72;5054874;28;20507;-77
2022/12/20 00:16:06;;;;;;;34.83;16.10;;;;;;;2.69;63.44;103092.22;5052766;28;20027;-76
2022/12/20 00:18:32;;;;;;;33.80;17.40;;;;;;;2.75;63.46;103086.84;5052435;28;20067;-75
2022/12/20 00:21:01;;;;;;;35.60;16.83;;;;;;;2.56;63.95;103082.59;5052307;28;20059;-77
2022/12/20 00:23:28;;;;;;;30.65;17.05;;;;;;;2.66;63.98;103093.09;5052337;28;20032;-76
2022/12/20 00:26:03;;;;;;;31.67;15.65;;;;;;;2.85;63.61;103087.59;5054001;28;20033;-77
2022/12/20 00:28:29;;;;;;;35.28;18.55;;;;;;;2.91;63.46;103077.78;5052492;28;20428;-76
2022/12/20 00:30:55;;;;;;;36.85;15.73;;;;;;;2.99;63.27;103083.94;5052369;28;20037;-76
2022/12/20 00:33:21;;;;;;;34.15;16.83;;;;;;;3.07;62.44;103068.75;5051954;28;20036;-76
2022/12/20 00:35:46;;;;;;;34.83;15.57;;;;;;;3.00;62.40;103067.06;5051903;28;20025;-76
2022/12/20 00:38:11;;;;;;;38.17;17.02;;;;;;;2.94;62.64;103051.19;5051207;28;20059;-76
2022/12/20 00:40:38;;;;;;;36.75;16.50;;;;;;;3.06;62.48;103067.00;5053817;28;20123;-78
2022/12/20 00:43:04;;;;;;;30.58;15.98;;;;;;;3.13;62.78;103052.72;5053360;28;20037;-75
2022/12/20 00:45:29;;;;;;;32.45;17.15;;;;;;;3.25;62.38;103055.25;5053878;28;20039;-76
2022/12/20 00:47:54;;;;;;;29.40;16.38;;;;;;;3.15;61.96;103007.53;5053140;28;20035;-77
2022/12/20 00:50:20;;;;;;;33.85;16.90;;;;;;;3.34;61.59;103040.06;5053167;28;20135;-76
2022/12/20 00:52:45;;;;;;;30.63;15.73;;;;;;;3.24;61.79;103040.19;5052193;28;20494;-77
2022/12/20 00:55:11;;;;;;;34.10;16.58;;;;;;;3.08;62.38;103022.69;5051818;28;20028;-77
2022/12/20 00:57:36;;;;;;;34.47;16.50;;;;;;;3.19;62.27;103034.06;5051417;28;20022;-75
2022/12/20 01:00:03;;;;;;;40.80;15.75;;;;;;;3.18;62.65;103018.97;5051598;28;20103;-75
2022/12/20 01:02:28;;;;;;;31.23;15.18;;;;;;;3.23;62.72;103022.47;5055369;28;20144;-77
2022/12/20 01:04:54;;;;;;;34.20;16.02;;;;;;;3.27;62.58;103026.84;5058455;28;20060;-76
2022/12/20 01:07:22;;;;;;;38.28;17.10;;;;;;;3.16;62.87;103026.09;5057765;28;20036;-76
2022/12/20 01:09:47;;;;;;;33.38;16.98;;;;;;;3.05;62.99;103033.34;5051996;28;20020;-75
2022/12/20 01:12:13;;;;;;;31.55;15.70;;;;;;;2.99;62.63;103012.16;5051787;28;20028;-74
2022/12/20 01:14:39;;;;;;;31.58;16.77;;;;;;;3.10;62.67;103028.84;5052039;28;20039;-75
2022/12/20 01:17:04;;;;;;;35.63;16.83;;;;;;;2.56;63.10;102947.13;5051296;28;20021;-78
2022/12/20 01:19:29;;;;;;;33.60;18.17;;;;;;;3.11;62.85;103043.91;5051426;28;20025;-77
2022/12/20 01:21:55;;;;;;;26.67;14.57;;;;;;;3.11;63.19;103037.72;5051241;28;20047;-76
2022/12/20 01:24:20;;;;;;;38.35;15.93;;;;;;;2.93;63.47;103016.66;5051382;28;20037;-76
2022/12/20 01:26:46;;;;;;;33.90;15.98;;;;;;;3.05;63.46;103012.06;5051128;28;20035;-75
2022/12/20 01:29:12;;;;;;;30.13;15.75;;;;;;;3.20;63.34;103027.84;5051569;28;20074;-77
2022/12/20 01:31:39;;;;;;;36.05;16.67;;;;;;;3.23;62.99;103019.81;5051053;28;20389;-76
2022/12/20 01:34:05;;;;;;;34.80;15.55;;;;;;;3.36;63.15;103015.22;5050631;28;20540;-77
2022/12/20 01:36:34;;;;;;;30.52;14.57;;;;;;;3.36;62.90;103022.31;5050875;28;20037;-77
2022/12/20 01:39:05;;;;;;;35.83;15.02;;;;;;;3.44;62.81;103013.31;5050912;28;20033;-76
2022/12/20 01:41:32;;;;;;;29.60;15.70;;;;;;;3.19;62.85;102967.56;5050852;28;20396;-76
2022/12/20 01:44:04;;;;;;;31.58;15.35;;;;;;;3.54;62.50;102990.13;5050340;28;20048;-75
2022/12/20 01:46:31;;;;;;;;;;;;;;;3.53;62.73;102988.38;5051114;28;20638;-76
2022/12/20 01:49:13;;;;;;;29.02;15.63;;;;;;;3.59;62.54;102972.31;5053006;28;19916;-76
2022/12/20 01:51:45;;;;;;;45.53;17.30;;;;;;;3.52;62.12;102974.19;5052900;28;20025;-76
2022/12/20 01:54:15;;;;;;;29.52;15.10;;;;;;;3.45;62.57;102974.31;5051566;28;20413;-76
2022/12/20 01:56:47;;;;;;;31.65;16.77;;;;;;;3.47;62.48;102968.06;5050502;28;20049;-76
2022/12/20 01:59:13;;;;;;;29.35;14.15;;;;;;;3.60;62.16;102958.13;5050825;28;20021;-76
2022/12/20 02:01:40;;;;;;;25.38;13.98;;;;;;;3.66;62.06;102963.34;5050187;28;20108;-76
2022/12/20 02:04:06;;;;;;;35.33;16.02;;;;;;;3.74;62.45;102966.75;5049992;28;20040;-76
2022/12/20 02:06:31;;;;;;;29.05;14.90;;;;;;;3.56;62.20;102961.72;5051548;28;20017;-75
2022/12/20 02:09:00;;;;;;;28.10;14.80;;;;;;;3.28;62.25;102934.66;5056477;28;20071;-76
2022/12/20 02:11:47;;;;;;;26.92;14.35;;;;;;;3.44;63.07;102961.91;5056792;28;20508;-77
2022/12/20 02:14:31;;;;;;;34.00;15.88;;;;;;;3.48;62.97;102963.63;5050031;28;20108;-76
2022/12/20 02:16:57;;;;;;;31.88;16.02;;;;;;;3.46;63.08;102954.75;5051873;28;20086;-76
2022/12/20 02:20:05;;;;;;;31.80;14.80;;;;;;;3.63;62.97;102950.09;5050912;28;20385;-76
2022/12/20 02:22:51;;;;;;;31.95;14.93;;;;;;;3.44;62.65;102914.91;5050249;28;20060;-76
2022/12/20 02:25:35;;;;;;;35.33;15.50;;;;;;;3.77;62.37;102946.28;5049867;28;20035;-77
2022/12/20 02:28:09;;;;;;;28.13;14.75;;;;;;;3.74;62.34;102924.16;5049916;28;20032;-78
2022/12/20 02:30:40;;;;;;;33.47;15.98;;;;;;;3.87;62.16;102943.47;5050092;28;20202;-77
2022/12/20 02:33:09;;;;;;;27.70;14.40;;;;;;;3.87;61.90;102943.47;5049985;28;20178;-77
2022/12/20 02:35:37;;;;;;;26.50;15.65;;;;;;;3.94;62.00;102945.16;5049369;28;20107;-75
2022/12/20 02:38:22;;;;;;;30.40;14.68;;;;;;;3.60;61.38;102895.16;5049627;28;20107;-75
2022/12/20 02:40:50;;;;;;;28.48;14.82;;;;;;;3.85;61.27;102933.72;5048498;28;20111;-76
2022/12/20 02:46:02;;;;;;;25.33;13.70;;;;;;;3.82;61.62;102932.94;5049830;28;20051;-77
2022/12/20 02:48:31;;;;;;;31.95;14.38;;;;;;;3.72;61.91;102894.94;5049592;28;20480;-76
2022/12/20 02:50:59;;;;;;;33.10;15.70;;;;;;;3.96;61.26;102936.22;5048926;28;20136;-75
2022/12/20 02:53:25;;;;;;;26.23;13.35;;;;;;;3.59;61.39;102884.50;5049289;28;20480;-76
2022/12/20 02:55:58;;;;;;;26.63;14.45;;;;;;;3.72;62.50;102940.19;5048979;28;20021;-76
2022/12/20 02:58:35;;;;;;;33.83;15.32;;;;;;;3.79;62.18;102943.63;5051059;28;20480;-77
2022/12/20 03:01:07;;;;;;;34.58;15.85;;;;;;;3.79;61.95;102933.84;5054395;28;20032;-76
2022/12/20 03:03:34;;;;;;;28.92;15.23;;;;;;;3.86;62.02;102929.28;5048784;28;20094;-76
2022/12/20 03:06:00;;;;;;;30.60;13.98;;;;;;;3.90;61.54;102914.16;5050024;28;20234;-75
2022/12/20 03:08:26;;;;;;;26.38;14.60;;;;;;;4.02;61.62;102930.78;5049988;28;20067;-76
2022/12/20 03:10:53;;;;;;;27.55;14.95;;;;;;;4.02;61.92;102927.25;5050262;28;20096;-76
2022/12/20 03:13:20;;;;;;;34.30;16.45;;;;;;;3.97;61.44;102914.03;5056534;28;20044;-77
2022/12/20 03:15:45;;;;;;;31.88;15.18;;;;;;;3.83;61.54;102886.75;5055208;28;20108;-77
2022/12/20 03:18:11;;;;;;;25.10;13.95;;;;;;;4.04;60.95;102922.75;5050688;28;20494;-78
2022/12/20 03:20:36;;;;;;;30.08;14.50;;;;;;;4.03;61.40;102915.69;5049855;28;20048;-76
2022/12/20 03:23:02;;;;;;;27.15;15.05;;;;;;;3.82;60.95;102888.53;5047362;28;20420;-76
2022/12/20 03:25:28;;;;;;;30.02;15.48;;;;;;;3.85;61.22;102887.63;5049778;28;20025;-76
2022/12/20 03:27:53;;;;;;;28.35;14.48;;;;;;;3.97;61.43;102927.34;5053552;28;20133;-76
2022/12/20 03:30:19;;;;;;;30.17;14.63;;;;;;;4.07;61.74;102920.03;5053542;28;20059;-75
2022/12/20 03:32:45;;;;;;;24.10;13.95;;;;;;;3.96;61.32;102925.56;5052801;28;20087;-76
2022/12/20 03:35:10;;;;;;;29.17;14.05;;;;;;;3.94;61.36;102924.72;5053070;28;20116;-76
2022/12/20 03:37:36;;;;;;;29.10;14.38;;;;;;;4.02;61.51;102936.13;5053091;28;20419;-76
2022/12/20 03:40:01;;;;;;;25.50;13.85;;;;;;;4.08;61.28;102933.34;5052808;28;20025;-76
2022/12/20 03:42:27;;;;;;;31.05;16.08;;;;;;;4.10;61.04;102923.53;5053201;28;20480;-75
2022/12/20 03:44:52;;;;;;;30.02;15.43;;;;;;;4.17;60.83;102908.31;5052953;28;20021;-76
2022/12/20 03:47:18;;;;;;;35.33;15.93;;;;;;;4.11;60.28;102909.31;5053646;28;20028;-76
2022/12/20 03:49:43;;;;;;;28.30;13.60;;;;;;;4.04;60.55;102894.34;5053290;28;20048;-77
2022/12/20 03:52:12;;;;;;;25.35;13.55;;;;;;;3.95;61.07;102901.63;5054126;28;20120;-77
2022/12/20 03:54:37;;;;;;;28.02;14.68;;;;;;;3.83;61.33;102886.75;5056183;28;20033;-76
2022/12/20 03:57:03;;;;;;;30.35;14.55;;;;;;;3.83;61.44;102905.38;5061125;28;20032;-77
2022/12/20 03:59:28;;;;;;;32.42;13.65;;;;;;;3.62;61.30;102865.84;5060432;28;20028;-78
2022/12/20 04:01:54;;;;;;;29.67;14.48;;;;;;;3.93;61.34;102914.97;5055047;28;20033;-77
2022/12/20 04:04:19;;;;;;;36.80;15.48;;;;;;;3.94;61.27;102922.06;5052897;28;20148;-76
2022/12/20 04:06:44;;;;;;;34.33;16.17;;;;;;;3.95;61.15;102937.13;5052516;28;20028;-77
2022/12/20 04:09:10;;;;;;;28.70;14.13;;;;;;;3.87;61.41;102931.06;5052921;28;20033;-76
2022/12/20 04:11:35;;;;;;;30.85;14.45;;;;;;;3.84;61.82;102933.78;5052483;28;20043;-78
2022/12/20 04:14:01;;;;;;;29.27;16.17;;;;;;;3.95;61.61;102922.91;5052414;28;20029;-77
2022/12/20 04:16:28;;;;;;;29.40;13.73;;;;;;;4.01;61.36;102928.13;5059664;28;20112;-76
2022/12/20 04:18:54;;;;;;;28.70;14.82;;;;;;;3.99;61.37;102909.53;5063247;28;20033;-77
2022/12/20 04:21:28;;;;;;;33.85;16.48;;;;;;;3.99;61.32;102925.53;5057428;28;20087;-76
2022/12/20 04:23:54;;;;;;;30.15;14.93;;;;;;;4.03;61.35;102927.22;5052734;28;20068;-78
2022/12/20 04:26:20;;;;;;;30.05;14.65;;;;;;;3.82;61.43;102922.28;5052385;28;20036;-77
2022/12/20 04:28:45;;;;;;;31.42;15.75;;;;;;;3.81;61.72;102931.16;5052179;28;20032;-76
2022/12/20 04:31:11;;;;;;;39.70;14.98;;;;;;;3.71;61.84;102933.09;5052399;28;20373;-76
2022/12/20 04:33:37;;;;;;;35.17;16.67;;;;;;;3.67;61.55;102923.38;5054216;28;20033;-76
2022/12/20 04:36:03;;;;;;;32.78;16.13;;;;;;;3.68;61.60;102930.47;5053105;28;20025;-77
2022/12/20 04:38:29;;;;;;;33.45;17.08;;;;;;;3.48;62.24;102927.28;5052699;28;20032;-78
2022/12/20 04:40:55;;;;;;;30.40;15.95;;;;;;;3.62;62.37;102929.69;5051612;28;20368;-77
2022/12/20 04:43:21;;;;;;;34.88;16.05;;;;;;;3.64;62.27;102930.56;5052277;28;20086;-78
2022/12/20 04:45:49;;;;;;;33.90;17.33;;;;;;;3.68;62.27;102929.59;5067818;28;20033;-77
2022/12/20 04:48:15;;;;;;;37.38;17.73;;;;;;;3.76;62.08;102933.03;5052668;28;20087;-78
2022/12/20 04:50:40;;;;;;;32.22;16.33;;;;;;;3.69;61.64;102913.63;5052588;28;20032;-76
2022/12/20 04:55:50;;;;;;;41.78;17.83;;;;;;;3.66;61.99;102910.13;5052004;28;20032;-77
2022/12/20 04:58:16;;;;;;;32.58;16.33;;;;;;;3.66;62.11;102916.34;5051657;28;20025;-77
2022/12/20 05:00:41;;;;;;;30.85;16.85;;;;;;;3.71;61.82;102913.56;5051977;28;20124;-76
2022/12/20 05:03:07;;;;;;;39.60;16.90;;;;;;;3.63;61.87;102915.50;5051649;28;20021;-76
2022/12/20 05:05:32;;;;;;;37.65;16.67;;;;;;;3.54;62.01;102915.66;5051617;28;20126;-77
2022/12/20 05:07:58;;;;;;;30.98;16.00;;;;;;;3.32;62.32;102882.28;5051529;28;20139;-77
2022/12/20 05:10:24;;;;;;;34.88;17.20;;;;;;;3.65;62.08;102921.66;5051646;28;20048;-77
2022/12/20 05:12:49;;;;;;;31.30;16.63;;;;;;;3.72;62.00;102928.66;5051706;28;20404;-76
2022/12/20 05:15:15;;;;;;;37.20;17.00;;;;;;;3.81;61.73;102925.84;5050587;28;20045;-78
2022/12/20 05:17:40;;;;;;;33.53;16.77;;;;;;;3.43;61.79;102880.34;5053446;28;20021;-77
2022/12/20 05:20:06;;;;;;;35.70;16.10;;;;;;;3.48;61.64;102892.69;5057236;28;20428;-76
2022/12/20 05:28:04;;;;;;;35.75;17.05;;;;;;;3.73;62.59;102930.41;5048560;28;20039;-74
2022/12/20 05:30:29;;;;;;;37.65;18.17;;;;;;;3.26;62.63;102892.13;5048151;28;20210;-78
2022/12/20 05:32:55;;;;;;;31.67;17.05;;;;;;;3.66;62.38;102931.41;5047882;28;20035;-75
2022/12/20 05:35:21;;;;;;;35.53;17.00;;;;;;;3.69;61.89;102926.03;5047261;28;20033;-76
2022/12/20 05:37:46;;;;;;;40.13;17.48;;;;;;;3.67;62.04;102922.53;5048158;28;20025;-76
2022/12/20 05:40:12;;;;;;;40.85;17.30;;;;;;;3.69;62.25;102915.41;5048228;28;20036;-77
2022/12/20 05:42:37;;;;;;;41.45;17.85;;;;;;;3.75;62.12;102931.25;5047985;28;20048;-77
2022/12/20 05:45:04;;;;;;;39.45;16.45;;;;;;;3.68;62.16;102925.16;5048034;28;20468;-78
2022/12/20 05:47:32;;;;;;;34.03;17.15;;;;;;;3.85;61.96;102932.88;5014727;28;20037;-76
2022/12/20 05:49:59;;;;;;;47.83;18.38;;;;;;;3.87;61.93;102916.88;5046715;28;20052;-76
2022/12/20 05:52:24;;;;;;;29.83;16.27;;;;;;;3.68;61.86;102898.53;5047417;28;20505;-75
2022/12/20 05:54:50;;;;;;;32.58;17.45;;;;;;;3.82;62.01;102919.63;5047672;28;20077;-76
2022/12/20 05:57:15;;;;;;;34.38;15.68;;;;;;;3.87;61.90;102920.41;5049453;28;20055;-78
2022/12/20 05:59:41;;;;;;;39.13;16.65;;;;;;;3.91;61.58;102926.56;5047657;28;20074;-76
2022/12/20 06:02:06;;;;;;;41.85;18.58;;;;;;;3.80;61.83;102916.09;5048710;28;20040;-77
2022/12/20 06:04:32;;;;;;;34.22;17.65;;;;;;;3.89;61.62;102918.59;5049999;28;20029;-77
2022/12/20 06:06:58;;;;;;;57.20;20.23;;;;;;;3.93;61.44;102914.09;5051174;28;20021;-78
2022/12/20 06:09:24;;;;;;;38.17;18.55;;;;;;;4.02;61.36;102911.28;5050574;28;20029;-78
2022/12/20 06:11:49;;;;;;;44.85;18.02;;;;;;;4.14;60.94;102911.94;5050522;28;20036;-77
2022/12/20 06:14:15;;;;;;;37.22;18.70;;;;;;;4.22;60.99;102933.97;5053789;28;20074;-77
2022/12/20 06:16:40;;;;;;;38.55;17.75;;;;;;;4.24;60.72;102934.84;5051623;28;20049;-78
2022/12/20 06:19:06;;;;;;;49.92;20.58;;;;;;;4.37;60.30;102923.03;5049688;28;20033;-76
2022/12/20 06:21:31;;;;;;;39.53;18.15;;;;;;;4.39;60.53;102926.56;5055265;28;20033;-77
2022/12/20 06:23:56;;;;;;;34.95;17.02;;;;;;;4.49;60.29;102918.38;5059349;28;20464;-77
2022/12/20 06:26:22;;;;;;;36.10;17.00;;;;;;;4.43;60.00;102926.50;5055982;28;20021;-76
2022/12/20 06:28:51;;;;;;;37.70;18.23;;;;;;;4.42;60.03;102928.28;5049736;28;20032;-77
2022/12/20 06:31:17;;;;;;;44.42;18.58;;;;;;;4.39;59.96;102926.56;5051074;28;20076;-77
2022/12/20 06:33:43;;;;;;;35.13;18.92;;;;;;;4.33;60.16;102939.09;5053112;28;20035;-77
2022/12/20 06:36:09;;;;;;;38.72;19.95;;;;;;;4.39;60.10;102939.88;5053222;28;20025;-77
2022/12/20 06:38:34;;;;;;;40.40;19.90;;;;;;;4.34;60.33;102939.06;5052090;28;20048;-77
2022/12/20 06:41:00;;;;;;;48.40;19.08;;;;;;;4.33;60.22;102904.47;5053013;28;20028;-76
2022/12/20 06:43:25;;;;;;;37.30;19.67;;;;;;;4.45;59.83;102904.22;5053001;28;20472;-77
2022/12/20 06:45:51;;;;;;;41.03;18.35;;;;;;;4.37;59.83;102891.03;5055157;28;20036;-77
2022/12/20 06:48:16;;;;;;;35.95;18.63;;;;;;;4.44;59.75;102917.56;5053517;28;20040;-77
2022/12/20 06:50:41;;;;;;;47.60;18.25;;;;;;;4.58;59.69;102931.53;5051617;28;20104;-78
2022/12/20 06:53:07;;;;;;;50.95;20.45;;;;;;;4.71;59.41;102928.56;5050987;28;20526;-77
2022/12/20 06:55:32;;;;;;;39.33;18.17;;;;;;;4.86;58.90;102938.91;5053047;28;20635;-76
2022/12/20 06:57:58;;;;;;;41.97;19.33;;;;;;;4.97;59.38;102929.81;5052021;28;20037;-77
2022/12/20 07:00:23;;;;;;;39.05;17.92;;;;;;;4.88;58.73;102893.56;5050720;28;20104;-76
2022/12/20 07:02:49;;;;;;;30.75;16.30;;;;;;;4.95;58.70;102927.19;5055341;28;20029;-77
2022/12/20 07:05:14;;;;;;;37.40;17.30;;;;;;;4.86;58.23;102927.41;5054598;28;20404;-78
2022/12/20 07:07:40;;;;;;;40.88;17.55;;;;;;;4.86;58.77;102922.06;5054191;28;20033;-77
2022/12/20 07:10:06;;;;;;;33.15;15.93;;;;;;;4.88;58.85;102931.78;5056912;28;20029;-76
2022/12/20 07:12:32;;;;;;;35.20;16.13;;;;;;;4.73;59.23;102905.44;5052073;28;20056;-77
2022/12/20 07:14:58;;;;;;;37.58;15.20;;;;;;;4.53;60.35;102888.06;5054244;28;20055;-76
2022/12/20 07:17:23;;;;;;;26.85;13.93;;;;;;;4.79;59.76;102923.97;5054579;28;20025;-77
2022/12/20 07:19:48;;;;;;;32.53;15.57;;;;;;;4.74;59.68;102911.66;5055352;28;20481;-77
2022/12/20 07:22:14;;;;;;;42.60;16.58;;;;;;;4.57;60.09;102908.44;5054422;28;20078;-77
2022/12/20 07:24:39;;;;;;;29.15;13.68;;;;;;;4.68;60.59;102917.13;5055969;28;20379;-76
2022/12/20 07:27:05;;;;;;;36.92;14.20;;;;;;;4.66;60.56;102916.25;5061365;28;20029;-76
2022/12/20 07:29:30;;;;;;;32.03;14.73;;;;;;;4.55;60.28;102894.28;5061699;28;20024;-76
2022/12/20 07:31:55;;;;;;;38.97;15.07;;;;;;;4.55;60.66;102899.59;5053470;28;20021;-78
2022/12/20 07:34:21;;;;;;;33.95;15.25;;;;;;;4.58;60.56;102907.53;5053204;28;20516;-77
2022/12/20 07:36:47;;;;;;;32.40;17.30;;;;;;;4.57;60.71;102898.66;5053853;28;20027;-76
2022/12/20 07:39:12;;;;;;;31.13;15.57;;;;;;;4.65;60.54;102895.81;5053158;28;20028;-74
2022/12/20 07:41:37;;;;;;;36.55;16.10;;;;;;;4.65;60.45;102890.50;5052422;28;20032;-75
2022/12/20 07:44:03;;;;;;;35.78;15.68;;;;;;;4.60;60.87;102893.25;5066588;28;20124;-75
2022/12/20 07:46:29;;;;;;;32.65;16.05;;;;;;;4.58;61.02;102896.88;5051798;28;20119;-75
2022/12/20 07:48:55;;;;;;;31.85;15.32;;;;;;;4.60;61.27;102887.06;5051708;28;20056;-75
2022/12/20 07:51:43;;;;;;;34.33;15.85;;;;;;;4.68;61.14;102895.78;5051976;28;20082;-76
2022/12/20 07:54:13;;;;;;;29.05;15.55;;;;;;;4.75;61.32;102884.94;5051472;28;20040;-75
2022/12/20 07:56:41;;;;;;;36.90;15.52;;;;;;;4.96;60.97;102880.94;5051718;28;20044;-76
2022/12/20 07:59:09;;;;;;;31.33;15.73;;;;;;;5.02;60.75;102885.25;5051796;28;20040;-74
2022/12/20 08:01:35;;;;;;;37.60;17.45;;;;;;;4.93;60.50;102878.34;5052037;28;20036;-75
2022/12/20 08:04:10;;;;;;;43.40;19.00;;;;;;;5.19;60.42;102889.31;5051410;28;20041;-76
2022/12/20 08:06:36;;;;;;;44.33;18.58;;;;;;;5.16;60.24;102881.38;5051717;28;20067;-75
2022/12/20 08:09:04;;;;;;;43.05;18.27;;;;;;;5.14;59.99;102837.84;5051551;28;20025;-75
2022/12/20 08:11:34;;;;;;;40.40;19.33;;;;;;;5.58;59.66;102873.25;5051100;28;20021;-75
2022/12/20 08:13:59;;;;;;;43.35;20.45;;;;;;;5.66;59.13;102876.59;5051477;28;20028;-75
2022/12/20 08:16:25;;;;;;;43.50;22.48;;;;;;;5.61;59.02;102870.50;5051580;28;20044;-74
2022/12/20 08:18:51;;;;;;;47.67;22.52;;;;;;;5.67;59.28;102878.34;5051289;28;20036;-75
2022/12/20 08:21:16;;;;;;;52.53;21.25;;;;;;;5.82;58.98;102867.28;5051505;28;20029;-75
2022/12/20 08:23:41;;;;;;;40.97;22.75;;;;;;;5.71;58.84;102856.88;5051321;28;20082;-75
2022/12/20 08:26:07;;;;;;;39.63;20.65;;;;;;;5.87;59.01;102873.44;5051203;28;20021;-76
2022/12/20 08:28:32;;;;;;;44.92;19.58;;;;;;;5.95;58.37;102866.09;5052961;28;20029;-75
2022/12/20 08:31:03;;;;;;;47.65;20.75;;;;;;;5.82;58.88;102819.22;5054480;28;20087;-75
2022/12/20 08:33:28;;;;;;;42.70;19.65;;;;;;;6.21;58.25;102865.38;5054242;28;20029;-75
2022/12/20 08:36:02;;;;;;;37.33;19.17;;;;;;;6.29;58.06;102866.03;5051425;28;20025;-76
2022/12/20 08:38:29;;;;;;;52.95;18.10;;;;;;;6.38;57.46;102855.97;5051453;28;20032;-75
2022/12/20 08:41:00;;;;;;;40.20;17.77;;;;;;;6.48;57.84;102854.75;5049658;28;20400;-75
2022/12/20 08:43:25;;;;;;;40.83;15.77;;;;;;;6.73;58.13;102851.41;5051672;28;20028;-74
2022/12/20 08:45:53;;;;;;;33.65;12.55;;;;;;;6.70;57.76;102840.75;5051689;28;20411;-75
2022/12/20 08:48:18;;;;;;;24.02;11.73;;;;;;;6.98;57.59;102841.69;5051901;28;20037;-74
2022/12/20 08:50:44;;;;;;;31.73;15.10;;;;;;;7.18;57.48;102833.91;5051834;28;20033;-76
2022/12/20 08:53:09;;;;;;;47.47;13.07;;;;;;;7.20;56.81;102816.00;5051917;28;20036;-76
2022/12/20 08:55:35;;;;;;;35.03;12.18;;;;;;;7.31;56.72;102783.53;5052300;28;20455;-75
2022/12/20 08:58:00;;;;;;;25.83;11.50;;;;;;;7.52;56.41;102837.22;5051857;28;20033;-74
2022/12/20 09:00:25;;;;;;;25.67;11.55;;;;;;;7.58;56.06;102812.91;5050957;28;20017;-75
2022/12/20 09:02:53;;;;;;;33.00;12.73;;;;;;;7.75;57.06;102812.34;5065064;28;20044;-75
2022/12/20 09:05:19;;;;;;;21.00;10.20;;;;;;;7.86;56.60;102806.63;5032035;28;20040;-74
2022/12/20 09:07:44;;;;;;;27.38;11.20;;;;;;;7.59;55.55;102760.22;5050586;28;20025;-73
2022/12/20 09:10:10;;;;;;;44.03;13.70;;;;;;;7.78;55.85;102801.50;5050649;28;20025;-75
2022/12/20 09:12:36;;;;;;;22.05;12.15;;;;;;;7.87;55.31;102787.78;5050755;28;20068;-75
2022/12/20 09:15:02;;;;;;;37.63;12.35;;;;;;;8.04;56.03;102787.19;5050502;28;20053;-75
2022/12/20 09:17:28;;;;;;;22.63;9.55;;;;;;;8.13;55.80;102768.09;5050619;28;20400;-75
2022/12/20 09:19:54;;;;;;;42.90;12.30;;;;;;;8.25;55.08;102756.91;5050690;28;20139;-75
2022/12/20 09:22:19;;;;;;;55.33;21.55;;;;;;;8.29;54.82;102774.66;5050320;28;20025;-74
2022/12/20 09:24:45;;;;;;;48.85;21.50;;;;;;;8.59;54.32;102794.94;5049354;28;20040;-74
2022/12/20 09:27:10;;;;;;;48.88;23.33;;;;;;;8.71;54.20;102791.75;5050671;28;20104;-75
2022/12/20 09:29:36;;;;;;;49.50;24.45;;;;;;;8.90;53.98;102794.59;5050454;28;20058;-74
2022/12/20 09:32:02;;;;;;;58.97;25.83;;;;;;;9.08;53.24;102783.13;5051464;28;20057;-75
2022/12/20 09:34:27;;;;;;;62.53;26.85;;;;;;;9.01;52.81;102737.81;5053584;28;20104;-75
2022/12/20 09:36:52;;;;;;;57.97;24.55;;;;;;;9.26;51.95;102770.78;5052078;28;20035;-75
2022/12/20 09:39:18;;;;;;;42.70;20.98;;;;;;;9.36;51.82;102772.09;5050238;28;20017;-75
2022/12/20 09:41:43;;;;;;;47.25;22.73;;;;;;;9.06;51.92;102730.44;5050264;28;20548;-76
2022/12/20 09:44:23;;;;;;;60.90;24.63;;;;;;;9.38;51.82;102769.38;5052006;28;20031;-76
2022/12/20 09:46:55;;;;;;;53.85;23.50;;;;;;;9.30;51.79;102761.63;5052064;28;20029;-74
2022/12/20 09:49:27;;;;;;;46.67;22.50;;;;;;;9.32;51.85;102765.16;5051989;28;20071;-74
2022/12/20 09:52:14;;;;;;;77.90;25.40;;;;;;;9.07;51.62;102718.78;5049564;28;20041;-73
2022/12/20 09:54:48;;;;;;;57.45;25.80;;;;;;;9.33;51.47;102760.66;5049968;28;20446;-73
2022/12/20 09:57:30;;;;;;;62.42;25.30;;;;;;;9.47;51.84;102758.25;5049986;28;20033;-74
2022/12/20 09:59:59;;;;;;;46.55;22.10;;;;;;;9.10;51.67;102721.34;5049703;28;20548;-75
2022/12/20 10:02:28;;;;;;;47.85;23.05;;;;;;;9.24;51.61;102741.28;5049958;28;20056;-75
2022/12/20 10:04:54;;;;;;;58.97;25.10;;;;;;;9.19;51.82;102726.31;5049756;28;20037;-74
2022/12/20 10:07:46;;;;;;;47.90;26.55;;;;;;;9.37;51.77;102736.28;5049592;28;20031;-74
2022/12/20 10:10:31;;;;;;;45.33;21.27;;;;;;;9.46;51.78;102730.50;5049877;28;20063;-75
2022/12/20 10:13:19;;;;;;;51.88;21.88;;;;;;;9.33;51.68;102694.34;5049686;28;20071;-76
2022/12/20 10:16:01;;;;;;;47.08;21.08;;;;;;;9.44;51.60;102715.41;5049138;28;20043;-75
2022/12/20 10:18:40;;;;;;;51.58;22.40;;;;;;;9.19;51.71;102683.34;5049089;28;20036;-75
2022/12/20 10:21:27;;;;;;;37.20;18.23;;;;;;;9.29;51.89;102723.16;5049443;28;20135;-75
2022/12/20 10:24:23;;;;;;;35.15;15.20;;;;;;;9.35;51.78;102722.03;5049333;28;20025;-75
2022/12/20 10:26:50;;;;;;;34.78;16.25;;;;;;;9.27;51.83;102705.38;5048859;28;20182;-76
2022/12/20 10:29:17;;;;;;;25.33;11.70;;;;;;;9.08;52.51;102691.84;5049588;28;20114;-74
2022/12/20 10:31:42;;;;;;;19.55;9.38;;;;;;;9.04;52.44;102692.94;5050105;28;20558;-75
2022/12/20 10:34:07;;;;;;;16.48;8.10;;;;;;;8.96;53.05;102713.00;5050389;28;20063;-74
2022/12/20 10:36:35;;;;;;;21.60;9.45;;;;;;;9.10;52.91;102702.53;5050451;28;20028;-75
2022/12/20 10:39:07;;;;;;;18.00;8.05;;;;;;;9.09;53.22;102704.34;5050741;28;20132;-74
2022/12/20 10:41:41;;;;;;;28.35;10.50;;;;;;;8.85;53.12;102658.88;5049658;28;20021;-74
2022/12/20 10:44:16;;;;;;;19.23;8.32;;;;;;;9.00;53.37;102682.38;5049186;28;20033;-75
2022/12/20 10:46:52;;;;;;;18.75;8.32;;;;;;;8.80;54.25;102674.31;5048984;28;20484;-76
2022/12/20 10:49:39;;;;;;;23.80;8.90;;;;;;;8.81;54.08;102673.38;5048713;28;20060;-75
2022/12/20 10:52:07;;;;;;;60.10;11.18;;;;;;;8.94;54.44;102677.28;5048416;28;20259;-74
2022/12/20 10:54:46;;;;;;;23.38;8.27;;;;;;;9.04;53.92;102667.91;5048988;28;20040;-75
2022/12/20 10:57:15;;;;;;;40.20;10.38;;;;;;;9.21;53.94;102665.34;5048795;28;20117;-73
2022/12/20 10:59:44;;;;;;;13.73;7.93;;;;;;;9.29;53.18;102673.97;5048576;28;20539;-75
2022/12/20 11:02:25;;;;;;;21.35;9.35;;;;;;;9.29;53.26;102657.88;5048596;28;20033;-75
2022/12/20 11:05:23;;;;;;;26.15;9.07;;;;;;;9.18;53.48;102660.13;5048698;28;20112;-76
2022/12/20 11:07:59;;;;;;;36.60;12.05;;;;;;;9.09;53.52;102628.31;5048410;28;20447;-73
2022/12/20 11:10:27;;;;;;;21.40;9.00;;;;;;;9.30;53.80;102655.09;5047289;28;20357;-74
2022/12/20 11:12:55;;;;;;;20.42;8.93;;;;;;;9.33;53.59;102642.50;5047244;28;20032;-75
2022/12/20 11:15:27;;;;;;;23.58;8.60;;;;;;;9.10;53.67;102630.94;5048934;28;20041;-76
2022/12/20 11:18:12;;;;;;;23.50;7.88;;;;;;;8.94;54.91;102634.34;5049193;28;20039;-74
2022/12/20 11:20:50;;;;;;;25.58;7.70;;;;;;;8.99;54.78;102629.66;5048915;28;20029;-75
2022/12/20 11:23:37;;;;;;;36.58;9.07;;;;;;;8.92;54.83;102625.47;5049224;28;20029;-74
2022/12/20 11:26:34;;;;;;;33.10;9.45;;;;;;;8.95;55.65;102614.63;5049264;28;20139;-76
2022/12/20 11:29:06;;;;;;;22.15;6.90;;;;;;;9.10;54.80;102616.63;5049080;28;20031;-76
2022/12/20 11:31:34;;;;;;;;;;;;;;;9.15;54.62;102612.81;5049427;28;20438;-75
2022/12/20 11:34:02;;;;;;;22.00;8.88;;;;;;;9.17;54.59;102604.69;5049290;28;19913;-76
2022/12/20 11:36:27;;;;;;;17.20;8.80;;;;;;;9.23;55.08;102599.06;5049159;28;20033;-75